Time;durP1;ratioP1;P1;durP2;ratioP2;P2;SDS_P1;SDS_P2;PMS_P1;PMS_P2;Temp;Humidity;BMP_temperature;BMP_pressure;BME280_temperature;BME280_humidity;BME280_pressure;Samples;Min_cycle;Max_cycle;Signal;HPM_P1;HPM_P2
2021/01/27 00:00:30;;;;;;;16.40;7.07;;;;;;;13.47;39.27;101439.41;5071687;28;20039;-70
2021/01/27 00:02:56;;;;;;;13.77;6.45;;;;;;;13.58;39.21;101419.19;5072430;28;20037;-71
2021/01/27 00:05:27;;;;;;;14.23;6.80;;;;;;;14.29;37.70;101422.44;5071456;28;20044;-70
2021/01/27 00:07:53;;;;;;;14.38;6.40;;;;;;;13.05;39.80;101429.44;5071021;28;20131;-71
2021/01/27 00:10:18;;;;;;;16.80;7.27;;;;;;;13.19;39.67;101422.28;5070247;28;20151;-70
2021/01/27 00:12:44;;;;;;;12.20;6.47;;;;;;;13.55;38.82;101425.78;5072609;28;20047;-70
2021/01/27 00:15:24;;;;;;;12.73;6.97;;;;;;;13.39;38.82;101442.25;5069840;28;20148;-70
2021/01/27 00:17:50;;;;;;;11.57;5.70;;;;;;;13.86;38.37;101453.19;5071338;28;20052;-71
2021/01/27 00:20:18;;;;;;;13.10;5.72;;;;;;;14.05;37.69;101446.19;5071904;28;20158;-70
2021/01/27 00:22:44;;;;;;;13.43;6.07;;;;;;;14.09;37.71;101436.72;5070801;28;20040;-70
2021/01/27 00:25:10;;;;;;;15.25;5.43;;;;;;;13.55;37.95;101431.16;5061818;28;20053;-63
2021/01/27 00:27:36;;;;;;;9.80;4.55;;;;;;;13.56;38.48;101438.19;5052562;28;20036;-70
2021/01/27 00:30:06;;;;;;;10.47;4.63;;;;;;;13.77;38.29;101436.41;5050870;28;20037;-70
2021/01/27 00:32:32;;;;;;;12.75;4.32;;;;;;;13.88;38.15;101438.53;5051348;28;20033;-70
2021/01/27 00:34:58;;;;;;;9.47;3.83;;;;;;;13.73;38.71;101432.47;5033945;28;20457;-70
2021/01/27 00:37:23;;;;;;;7.80;4.47;;;;;;;13.67;38.77;101433.28;5050776;28;20097;-70
2021/01/27 00:39:48;;;;;;;7.87;3.33;;;;;;;12.95;39.70;101418.25;5051700;28;20525;-70
2021/01/27 00:42:14;;;;;;;9.90;3.97;;;;;;;13.51;39.14;101424.53;5050787;28;20041;-69
2021/01/27 00:44:40;;;;;;;7.23;3.20;;;;;;;13.22;39.55;101431.81;5034230;28;20039;-70
2021/01/27 00:47:05;;;;;;;6.17;3.73;;;;;;;12.89;40.30;101422.53;5051699;28;20611;-70
2021/01/27 00:49:31;;;;;;;10.73;4.30;;;;;;;13.62;39.31;101425.81;5051034;28;21205;-70
2021/01/27 00:51:56;;;;;;;8.43;4.60;;;;;;;13.63;39.33;101422.09;5051373;28;20081;-70
2021/01/27 00:54:22;;;;;;;8.77;4.15;;;;;;;12.90;41.00;101417.97;5049619;28;20029;-70
2021/01/27 00:56:47;;;;;;;7.20;3.40;;;;;;;13.26;40.42;101413.44;5061414;28;20497;-70
2021/01/27 00:59:13;;;;;;;8.82;3.70;;;;;;;13.17;40.60;101407.41;5068834;28;20020;-69
2021/01/27 01:01:41;;;;;;;9.85;4.78;;;;;;;12.89;41.23;101397.53;5050069;28;20570;-70
2021/01/27 01:04:13;;;;;;;10.30;4.35;;;;;;;13.43;40.46;101395.16;5033702;28;20047;-66
2021/01/27 01:06:39;;;;;;;8.23;4.33;;;;;;;13.11;40.91;101402.81;5051197;28;20435;-71
2021/01/27 01:09:05;;;;;;;14.67;5.70;;;;;;;12.95;41.40;101402.13;5051261;28;20319;-70
2021/01/27 01:11:30;;;;;;;6.93;3.90;;;;;;;12.85;41.56;101409.69;5063852;28;20125;-69
2021/01/27 01:13:56;;;;;;;8.67;4.20;;;;;;;13.34;40.40;101400.66;5069952;28;20071;-69
2021/01/27 01:16:21;;;;;;;11.77;5.50;;;;;;;13.02;41.37;101386.88;5068749;28;20048;-70
2021/01/27 01:18:47;;;;;;;9.20;5.00;;;;;;;12.71;41.87;101372.06;5069974;28;20032;-70
2021/01/27 01:21:12;;;;;;;8.93;4.93;;;;;;;12.87;41.24;101380.78;5070708;28;20036;-62
2021/01/27 01:23:38;;;;;;;9.63;5.50;;;;;;;12.43;42.91;101380.91;5069663;28;20029;-70
2021/01/27 01:26:04;;;;;;;10.67;5.33;;;;;;;12.50;42.79;101370.22;5069868;28;20037;-71
2021/01/27 01:28:30;;;;;;;8.13;4.10;;;;;;;12.66;43.32;101344.94;5070105;28;20476;-70
2021/01/27 01:30:55;;;;;;;9.70;4.77;;;;;;;12.13;45.21;101348.91;5070994;28;20040;-70
2021/01/27 01:33:29;;;;;;;11.30;4.77;;;;;;;12.43;44.34;101324.56;5069062;28;20028;-70
2021/01/27 01:35:56;;;;;;;10.90;5.88;;;;;;;11.88;46.13;101343.91;5070655;28;20115;-71
2021/01/27 01:38:22;;;;;;;12.75;6.30;;;;;;;12.30;46.13;101337.91;5068898;28;20426;-69
2021/01/27 01:40:54;;;;;;;11.38;5.90;;;;;;;12.50;46.02;101332.69;5071041;28;20098;-69
2021/01/27 01:43:28;;;;;;;16.85;7.28;;;;;;;12.05;47.00;101332.97;5052447;28;20039;-70
2021/01/27 01:45:57;;;;;;;15.70;7.53;;;;;;;12.15;46.92;101319.22;5071128;28;20040;-69
2021/01/27 01:48:40;;;;;;;14.68;6.38;;;;;;;12.01;46.85;101303.03;5070362;28;20392;-69
2021/01/27 01:51:11;;;;;;;12.65;6.00;;;;;;;12.18;46.98;101311.59;5071448;28;20040;-70
2021/01/27 01:53:37;;;;;;;14.00;5.13;;;;;;;12.21;46.51;101317.59;5068719;28;20036;-70
2021/01/27 01:56:06;;;;;;;11.02;5.22;;;;;;;11.80;47.30;101298.50;5055082;28;20036;-70
2021/01/27 01:58:33;;;;;;;9.68;5.30;;;;;;;12.43;47.06;101278.97;5080640;28;20032;-70
2021/01/27 02:01:01;;;;;;;8.13;4.70;;;;;;;13.05;45.25;101259.47;5071073;28;20487;-71
2021/01/27 02:03:29;;;;;;;8.18;4.70;;;;;;;12.86;45.24;101259.19;5068974;28;20132;-72
2021/01/27 02:05:56;;;;;;;9.68;4.68;;;;;;;13.10;44.56;101264.22;5070713;28;20507;-71
2021/01/27 02:08:22;;;;;;;9.90;4.55;;;;;;;13.09;44.61;101257.19;5072318;28;20368;-70
2021/01/27 02:10:47;;;;;;;9.63;3.40;;;;;;;11.85;47.06;101261.22;5074474;28;20039;-71
2021/01/27 02:13:25;;;;;;;11.53;4.53;;;;;;;12.19;46.77;101251.59;5073121;28;20095;-70
2021/01/27 02:16:04;;;;;;;8.18;4.70;;;;;;;12.52;45.79;101250.16;5074008;28;20032;-70
2021/01/27 02:18:56;;;;;;;10.55;4.25;;;;;;;12.30;45.69;101247.53;5093910;28;20051;-70
2021/01/27 02:21:56;;;;;;;7.07;4.47;;;;;;;12.04;46.75;101248.22;5078452;28;20032;-70
2021/01/27 02:25:02;;;;;;;7.93;3.88;;;;;;;12.07;46.73;101234.41;5093418;28;20067;-70
2021/01/27 02:27:38;;;;;;;7.40;3.58;;;;;;;12.59;45.25;101221.50;5093517;28;20056;-71
2021/01/27 02:30:38;;;;;;;10.38;5.15;;;;;;;12.93;44.84;101216.28;5094621;28;20089;-71
2021/01/27 02:33:25;;;;;;;10.05;4.40;;;;;;;12.94;44.84;101222.47;5076163;28;20040;-71
2021/01/27 02:36:07;;;;;;;9.27;4.03;;;;;;;12.26;46.15;101218.66;5093960;28;20036;-71
2021/01/27 02:38:40;;;;;;;10.20;4.25;;;;;;;12.68;44.87;101200.69;5075541;28;20044;-71
2021/01/27 02:41:15;;;;;;;8.23;3.97;;;;;;;12.79;45.44;101210.00;5094451;28;20047;-71
2021/01/27 02:43:44;;;;;;;6.40;3.63;;;;;;;12.11;46.38;101224.94;5075477;28;20036;-71
2021/01/27 02:46:17;;;;;;;9.68;3.53;;;;;;;12.06;46.88;101211.31;5094745;28;20035;-71
2021/01/27 02:49:00;;;;;;;7.38;3.60;;;;;;;12.66;44.63;101202.72;5095646;28;20177;-73
2021/01/27 02:51:56;;;;;;;13.65;4.38;;;;;;;12.16;46.67;101187.66;5076109;28;20032;-72
2021/01/27 02:54:43;;;;;;;9.13;3.30;;;;;;;11.89;47.34;101176.72;5091977;28;20044;-63
2021/01/27 02:57:37;;;;;;;8.85;3.17;;;;;;;14.17;41.12;101155.94;5093824;28;20465;-71
2021/01/27 03:00:08;;;;;;;5.97;3.78;;;;;;;13.56;42.50;101164.09;5093954;28;20071;-71
2021/01/27 03:02:45;;;;;;;7.82;3.20;;;;;;;13.15;43.61;101173.97;5074469;28;20059;-71
2021/01/27 03:05:19;;;;;;;7.60;3.63;;;;;;;13.78;42.03;101180.00;5094228;28;20384;-71
2021/01/27 03:07:53;;;;;;;6.43;3.40;;;;;;;13.14;43.23;101158.06;5092704;28;20044;-71
2021/01/27 03:10:39;;;;;;;4.95;2.80;;;;;;;13.60;43.00;101156.47;5093425;28;20042;-71
2021/01/27 03:13:05;;;;;;;10.68;4.10;;;;;;;12.66;44.53;101180.47;5075572;28;20040;-69
2021/01/27 03:15:30;;;;;;;6.83;2.70;;;;;;;12.83;44.69;101165.66;5074285;28;20518;-70
2021/01/27 03:18:00;;;;;;;5.30;2.87;;;;;;;12.57;45.14;101169.91;5092973;28;20288;-71
2021/01/27 03:20:33;;;;;;;5.15;2.72;;;;;;;12.80;44.88;101174.13;5074430;28;20039;-66
2021/01/27 03:23:13;;;;;;;5.07;2.45;;;;;;;12.79;45.14;101159.00;5093503;28;20442;-70
2021/01/27 03:25:47;;;;;;;6.60;3.63;;;;;;;12.63;45.54;101149.47;5074270;28;20044;-70
2021/01/27 03:29:01;;;;;;;7.93;3.35;;;;;;;13.52;43.01;101151.31;5093409;28;20108;-71
2021/01/27 03:31:27;;;;;;;5.00;3.05;;;;;;;12.89;44.05;101142.53;5085440;28;20055;-67
2021/01/27 03:34:04;;;;;;;4.63;2.53;;;;;;;13.43;43.40;101131.88;5093022;28;20035;-71
2021/01/27 03:36:38;;;;;;;6.77;2.57;;;;;;;13.02;43.01;101144.41;5074290;28;20276;-70
2021/01/27 03:39:04;;;;;;;7.93;3.80;;;;;;;13.18;44.07;101135.16;5093040;28;20356;-70
2021/01/27 03:41:51;;;;;;;7.68;3.10;;;;;;;12.72;44.76;101121.44;5073761;28;20081;-69
2021/01/27 03:44:25;;;;;;;6.50;2.50;;;;;;;12.72;44.85;101118.78;5093037;28;20039;-71
2021/01/27 03:46:59;;;;;;;6.15;3.83;;;;;;;13.19;44.13;101120.69;5074194;28;20040;-70
2021/01/27 03:49:30;;;;;;;5.57;3.35;;;;;;;13.73;42.51;101118.00;5092372;28;20459;-62
2021/01/27 03:52:10;;;;;;;6.30;3.30;;;;;;;13.50;42.97;101119.25;5092614;28;20032;-70
2021/01/27 03:54:40;;;;;;;5.20;2.80;;;;;;;13.28;44.41;101114.06;5073888;28;20063;-70
2021/01/27 03:57:15;;;;;;;6.53;3.47;;;;;;;11.91;47.79;101106.88;5058000;28;20374;-71
2021/01/27 03:59:45;;;;;;;9.18;3.90;;;;;;;11.94;48.05;101129.75;5073634;28;20440;-70
2021/01/27 04:02:17;;;;;;;6.53;3.47;;;;;;;11.64;49.73;101100.50;5057993;28;20127;-70
2021/01/27 04:04:42;;;;;;;9.38;3.75;;;;;;;11.64;50.17;101106.69;5073703;28;20044;-70
2021/01/27 04:07:08;;;;;;;6.30;4.00;;;;;;;11.87;49.77;101114.47;5092584;28;20032;-70
2021/01/27 04:09:33;;;;;;;12.38;4.30;;;;;;;11.45;51.36;101086.78;5091789;28;20032;-69
2021/01/27 04:11:59;;;;;;;12.37;3.90;;;;;;;12.29;49.80;101098.41;5092481;28;20128;-70
2021/01/27 04:14:25;;;;;;;5.43;3.40;;;;;;;12.07;49.94;101107.56;5074514;28;20032;-70
2021/01/27 04:16:51;;;;;;;8.48;3.97;;;;;;;11.82;50.38;101091.94;5057052;28;20614;-71
2021/01/27 04:19:16;;;;;;;7.72;3.65;;;;;;;12.03;50.13;101091.88;5092479;28;20156;-71
2021/01/27 04:21:42;;;;;;;9.00;4.83;;;;;;;12.52;48.77;101088.38;5091289;28;20119;-70
2021/01/27 04:24:08;;;;;;;8.53;4.30;;;;;;;12.03;50.95;101078.50;5073969;28;20123;-70
2021/01/27 04:26:35;;;;;;;8.73;5.20;;;;;;;12.29;50.07;101090.34;5091337;28;20114;-70
2021/01/27 04:29:01;;;;;;;7.05;4.65;;;;;;;12.69;48.59;101073.56;5091748;28;20059;-70
2021/01/27 04:31:27;;;;;;;8.15;4.85;;;;;;;12.09;51.11;101068.84;5091389;28;20068;-70
2021/01/27 04:33:52;;;;;;;8.65;4.28;;;;;;;12.53;49.55;101073.94;5072968;28;20135;-70
2021/01/27 04:36:18;;;;;;;7.13;3.97;;;;;;;11.96;52.30;101040.09;5073960;28;20048;-71
2021/01/27 04:38:44;;;;;;;10.03;5.67;;;;;;;12.07;51.35;101038.72;5090928;28;20039;-70
2021/01/27 04:41:10;;;;;;;6.90;4.80;;;;;;;11.81;52.12;101029.50;5073958;28;20097;-70
2021/01/27 04:43:38;;;;;;;7.47;4.93;;;;;;;11.79;52.70;101031.56;5090816;28;20112;-70
2021/01/27 04:46:29;;;;;;;7.57;4.93;;;;;;;12.13;51.22;101027.19;5091792;28;20036;-70
2021/01/27 04:48:57;;;;;;;7.93;4.57;;;;;;;11.90;52.33;101028.31;5072217;28;20047;-71
2021/01/27 04:51:35;;;;;;;20.02;6.22;;;;;;;12.15;52.02;101013.59;5091849;28;20043;-70
2021/01/27 04:54:19;;;;;;;7.33;4.20;;;;;;;11.96;51.22;100991.84;5073552;28;20047;-69
2021/01/27 04:57:07;;;;;;;7.65;5.13;;;;;;;12.39;50.07;101004.16;5072883;28;20286;-70
2021/01/27 05:00:07;;;;;;;14.88;5.40;;;;;;;12.21;51.23;100987.81;5090963;28;20114;-64
2021/01/27 05:02:52;;;;;;;8.90;5.50;;;;;;;11.80;52.17;100995.72;5073213;28;20032;-63
2021/01/27 05:05:33;;;;;;;8.60;4.85;;;;;;;12.77;49.03;100990.16;5072986;28;20131;-71
2021/01/27 05:08:25;;;;;;;11.85;6.57;;;;;;;12.28;50.83;100978.75;5090957;28;20036;-69
2021/01/27 05:11:00;;;;;;;9.23;5.40;;;;;;;12.17;51.25;100998.94;5072371;28;20046;-71
2021/01/27 05:13:33;;;;;;;10.63;5.30;;;;;;;11.87;52.63;100988.50;5091469;28;20048;-72
2021/01/27 05:16:08;;;;;;;10.70;5.57;;;;;;;12.24;51.65;100985.56;5072485;28;20032;-71
2021/01/27 05:18:33;;;;;;;11.38;5.30;;;;;;;12.59;50.27;100980.06;5090771;28;20051;-62
2021/01/27 05:20:59;;;;;;;9.60;5.63;;;;;;;12.17;52.08;100984.72;5090866;28;20024;-71
2021/01/27 05:23:25;;;;;;;10.50;5.80;;;;;;;12.22;51.87;100978.72;5091087;28;20269;-72
2021/01/27 05:26:06;;;;;;;9.37;5.17;;;;;;;12.26;51.81;100958.56;5090542;28;20036;-73
2021/01/27 05:28:36;;;;;;;9.18;4.50;;;;;;;11.36;55.54;100973.63;5091046;28;20047;-71
2021/01/27 05:31:02;;;;;;;6.97;4.63;;;;;;;11.45;55.46;100960.91;5082691;28;20032;-71
2021/01/27 05:33:54;;;;;;;9.83;5.07;;;;;;;12.22;51.73;100958.13;5070927;28;20028;-71
2021/01/27 05:36:27;;;;;;;8.68;6.05;;;;;;;12.22;52.50;100943.88;5066591;28;20289;-71
2021/01/27 05:39:15;;;;;;;15.02;5.65;;;;;;;12.60;50.96;100936.09;5052172;28;20476;-71
2021/01/27 05:41:43;;;;;;;11.80;5.53;;;;;;;11.99;52.96;100959.28;5070136;28;20135;-70
2021/01/27 05:44:13;;;;;;;10.10;5.85;;;;;;;12.61;51.67;100936.91;5056477;28;20108;-69
2021/01/27 05:46:40;;;;;;;10.32;6.18;;;;;;;12.26;52.78;100943.28;5055690;28;20041;-59
2021/01/27 05:49:27;;;;;;;11.82;7.30;;;;;;;12.48;51.54;100965.38;5056778;28;20127;-70
2021/01/27 05:51:52;;;;;;;11.02;6.45;;;;;;;11.72;54.75;100934.22;5073735;28;20105;-70
2021/01/27 05:54:21;;;;;;;9.97;6.30;;;;;;;12.65;52.00;100938.13;5074614;28;20405;-70
2021/01/27 05:56:47;;;;;;;7.90;5.40;;;;;;;12.51;52.23;100941.88;5073669;28;20529;-70
2021/01/27 05:59:24;;;;;;;9.35;5.65;;;;;;;11.70;56.50;100930.94;5074903;28;20036;-70
2021/01/27 06:01:51;;;;;;;12.13;6.45;;;;;;;12.28;53.88;100925.13;5073562;28;20032;-69
2021/01/27 06:04:22;;;;;;;11.38;6.88;;;;;;;13.03;51.05;100929.44;5074372;28;20041;-70
2021/01/27 06:06:48;;;;;;;9.43;6.40;;;;;;;12.65;52.84;100922.03;5055863;28;20055;-70
2021/01/27 06:09:14;;;;;;;11.83;7.03;;;;;;;11.94;54.99;100913.50;5074427;28;20115;-70
2021/01/27 06:11:42;;;;;;;12.82;6.53;;;;;;;12.91;52.18;100926.56;5073730;28;20032;-61
2021/01/27 06:14:18;;;;;;;13.82;9.15;;;;;;;12.15;54.55;100933.97;5074016;28;20128;-70
2021/01/27 06:16:49;;;;;;;10.05;6.85;;;;;;;12.22;54.76;100927.78;5055241;28;20067;-69
2021/01/27 06:19:20;;;;;;;14.88;9.25;;;;;;;12.47;53.33;100904.72;5074283;28;20044;-71
2021/01/27 06:22:18;;;;;;;14.75;9.35;;;;;;;13.12;50.67;100923.84;5075248;28;20044;-71
2021/01/27 06:25:01;;;;;;;19.30;10.93;;;;;;;12.94;51.44;100908.38;5091265;28;20039;-70
2021/01/27 06:27:51;;;;;;;18.50;9.30;;;;;;;12.35;52.85;100919.78;5092394;28;20028;-70
2021/01/27 06:30:37;;;;;;;16.80;9.23;;;;;;;12.26;55.19;100915.66;5094468;28;20066;-69
2021/01/27 06:33:27;;;;;;;17.83;10.15;;;;;;;12.18;55.31;100925.53;5091587;28;20048;-69
2021/01/27 06:36:42;;;;;;;17.25;9.70;;;;;;;12.62;53.84;100923.28;5074285;28;20123;-69
2021/01/27 06:39:11;;;;;;;18.98;9.48;;;;;;;13.44;51.23;100918.63;5067735;28;20048;-69
2021/01/27 06:41:55;;;;;;;16.88;9.38;;;;;;;12.72;52.48;100922.03;5075244;28;20028;-68
2021/01/27 06:44:38;;;;;;;15.85;10.07;;;;;;;12.97;52.42;100914.19;5091046;28;20097;-68
2021/01/27 06:47:04;;;;;;;16.55;8.85;;;;;;;12.58;53.50;100921.22;5090061;28;20040;-70
2021/01/27 06:50:14;;;;;;;15.60;9.23;;;;;;;12.99;52.41;100924.69;5094062;28;20460;-69
2021/01/27 06:52:45;;;;;;;17.48;10.25;;;;;;;12.60;54.16;100914.63;5065180;28;20079;-69
2021/01/27 06:55:32;;;;;;;14.90;9.63;;;;;;;13.18;51.96;100902.34;5093359;28;20043;-69
2021/01/27 06:58:16;;;;;;;16.52;9.35;;;;;;;13.26;52.03;100897.75;5086050;28;20041;-68
2021/01/27 07:00:41;;;;;;;11.75;7.70;;;;;;;12.36;55.86;100896.47;5073322;28;20053;-61
2021/01/27 07:03:28;;;;;;;13.97;8.53;;;;;;;11.89;58.25;100892.66;5074513;28;20487;-66
2021/01/27 07:06:03;;;;;;;10.40;7.05;;;;;;;12.35;55.87;100900.19;5092921;28;20040;-69
2021/01/27 07:08:50;;;;;;;11.52;6.68;;;;;;;12.67;55.49;100897.69;5072819;28;20044;-67
2021/01/27 07:11:36;;;;;;;14.85;7.95;;;;;;;12.34;56.52;100899.34;5087656;28;20036;-67
2021/01/27 07:14:28;;;;;;;12.35;7.63;;;;;;;12.18;57.80;100884.50;5090396;28;20036;-67
2021/01/27 07:17:18;;;;;;;8.57;5.68;;;;;;;11.78;60.54;100885.22;5092196;28;20524;-68
2021/01/27 07:20:26;;;;;;;11.52;6.93;;;;;;;12.72;56.16;100863.00;5065257;28;20064;-62
2021/01/27 07:22:51;;;;;;;12.60;6.88;;;;;;;12.57;56.80;100871.28;5053969;28;20049;-66
2021/01/27 07:25:31;;;;;;;11.87;6.97;;;;;;;12.67;55.92;100852.09;5073145;28;20040;-68
2021/01/27 07:28:03;;;;;;;11.80;7.20;;;;;;;12.65;56.58;100873.75;5056680;28;20443;-68
2021/01/27 07:30:43;;;;;;;11.25;7.07;;;;;;;12.24;58.02;100882.84;5090406;28;20032;-67
2021/01/27 07:33:22;;;;;;;11.30;6.65;;;;;;;13.11;54.37;100871.16;5061443;28;20103;-69
2021/01/27 07:36:03;;;;;;;13.27;7.07;;;;;;;12.35;57.53;100884.09;5090662;28;20036;-61
2021/01/27 07:38:34;;;;;;;15.45;9.20;;;;;;;12.18;57.73;100877.25;5074603;28;20073;-68
2021/01/27 07:41:08;;;;;;;16.83;9.63;;;;;;;12.33;58.30;100876.25;5091511;28;20036;-67
2021/01/27 07:44:05;;;;;;;13.48;8.90;;;;;;;12.19;58.04;100865.50;5055466;28;20041;-68
2021/01/27 07:46:39;;;;;;;15.95;9.38;;;;;;;11.97;59.51;100864.00;5083561;28;20037;-68
2021/01/27 07:49:06;;;;;;;18.38;10.52;;;;;;;12.07;58.85;100871.69;5087681;28;20112;-65
2021/01/27 07:51:49;;;;;;;19.65;10.10;;;;;;;12.14;58.63;100876.03;5092801;28;20028;-66
2021/01/27 07:54:25;;;;;;;17.67;10.20;;;;;;;12.19;59.44;100884.28;5073995;28;20441;-68
2021/01/27 07:57:18;;;;;;;20.73;11.20;;;;;;;13.76;51.75;100870.28;5091516;28;20044;-67
2021/01/27 07:59:52;;;;;;;23.10;12.60;;;;;;;14.44;49.26;100873.34;5091994;28;20044;-67
2021/01/27 08:02:23;;;;;;;25.98;13.02;;;;;;;13.45;52.06;100866.53;5072498;28;20040;-68
2021/01/27 08:04:55;;;;;;;24.88;13.10;;;;;;;14.11;49.92;100871.72;5098025;28;20055;-62
2021/01/27 08:07:35;;;;;;;21.65;11.85;;;;;;;14.36;48.58;100882.50;5112529;28;20050;-68
2021/01/27 08:10:27;;;;;;;17.20;9.55;;;;;;;13.86;50.60;100875.19;5076773;28;20057;-67
2021/01/27 08:12:56;;;;;;;16.88;9.70;;;;;;;14.47;48.21;100871.00;5111631;28;20044;-67
2021/01/27 08:15:21;;;;;;;18.92;11.00;;;;;;;14.68;48.13;100874.34;5112748;28;20087;-69
2021/01/27 08:18:01;;;;;;;20.00;10.23;;;;;;;13.86;50.32;100856.38;5112963;28;20039;-60
2021/01/27 08:20:31;;;;;;;17.73;10.23;;;;;;;14.07;49.52;100863.28;5112591;28;20059;-68
2021/01/27 08:23:00;;;;;;;16.42;9.63;;;;;;;14.12;50.14;100858.06;5093625;28;20032;-68
2021/01/27 08:25:56;;;;;;;19.40;10.60;;;;;;;14.29;49.01;100866.41;5094337;28;20244;-69
2021/01/27 08:28:37;;;;;;;19.50;9.50;;;;;;;14.77;46.72;100867.66;5094942;28;20171;-68
2021/01/27 08:31:18;;;;;;;23.45;12.40;;;;;;;14.41;47.99;100871.91;5108707;28;20035;-69
2021/01/27 08:33:46;;;;;;;20.17;11.63;;;;;;;14.88;47.52;100865.28;5092048;28;20384;-69
2021/01/27 08:36:18;;;;;;;18.10;10.20;;;;;;;14.84;47.04;100874.84;5091206;28;20042;-68
2021/01/27 08:39:06;;;;;;;19.63;10.93;;;;;;;14.93;47.18;100851.97;5091933;28;20115;-69
2021/01/27 08:42:19;;;;;;;22.02;11.63;;;;;;;14.16;49.82;100859.28;5056979;28;20043;-69
2021/01/27 08:44:46;;;;;;;17.48;9.73;;;;;;;15.04;46.27;100880.84;4992742;28;20049;-69
2021/01/27 08:47:22;;;;;;;19.70;10.73;;;;;;;15.14;46.76;100877.63;5008026;28;20034;-69
2021/01/27 08:50:01;;;;;;;20.40;10.70;;;;;;;14.30;49.16;100881.50;5009375;28;20477;-61
2021/01/27 08:52:40;;;;;;;18.35;10.50;;;;;;;14.33;48.62;100861.44;5009233;28;20069;-68
2021/01/27 08:55:43;;;;;;;17.17;9.60;;;;;;;13.68;51.88;100870.56;5008027;28;20548;-66
2021/01/27 08:58:37;;;;;;;18.60;11.07;;;;;;;13.97;50.74;100882.59;4996298;28;20078;-68
2021/01/27 09:01:31;;;;;;;20.52;11.50;;;;;;;15.44;46.98;100876.84;4998451;28;20045;-70
2021/01/27 09:03:59;;;;;;;21.25;12.23;;;;;;;14.72;48.70;100880.94;4978897;28;20045;-70
2021/01/27 09:06:41;;;;;;;20.02;12.07;;;;;;;15.66;45.95;100889.00;4993055;28;20050;-70
2021/01/27 09:09:23;;;;;;;20.45;11.30;;;;;;;14.39;48.63;100890.13;5008351;28;20054;-68
2021/01/27 09:12:06;;;;;;;23.05;13.45;;;;;;;15.25;47.24;100886.00;5009027;28;20129;-62
2021/01/27 09:14:33;;;;;;;28.95;13.57;;;;;;;14.52;49.18;100889.19;5017609;28;20042;-70
2021/01/27 09:17:01;;;;;;;22.38;12.43;;;;;;;14.38;49.25;100907.31;5083432;28;20130;-69
2021/01/27 09:19:29;;;;;;;23.50;13.07;;;;;;;14.26;50.78;100901.81;5079508;28;20048;-69
2021/01/27 09:22:12;;;;;;;29.40;15.25;;;;;;;15.72;45.38;100896.19;5078522;28;20047;-66
2021/01/27 09:24:49;;;;;;;25.70;13.82;;;;;;;13.88;50.92;100903.53;5079577;28;20118;-69
2021/01/27 09:27:31;;;;;;;26.83;14.48;;;;;;;15.20;48.27;100897.44;5096554;28;20048;-69
2021/01/27 09:30:07;;;;;;;27.50;14.98;;;;;;;15.30;47.95;100897.75;5084583;28;20093;-68
2021/01/27 09:32:34;;;;;;;26.02;13.57;;;;;;;13.31;54.57;100906.84;5105712;28;20040;-69
2021/01/27 09:35:21;;;;;;;30.50;15.70;;;;;;;14.64;50.13;100902.75;5107483;28;20039;-69
2021/01/27 09:38:09;;;;;;;31.15;16.10;;;;;;;14.07;51.56;100900.94;5106982;28;20270;-69
2021/01/27 09:40:46;;;;;;;32.13;17.05;;;;;;;14.22;51.98;100907.84;5108250;28;20036;-70
2021/01/27 09:43:16;;;;;;;33.47;16.90;;;;;;;14.36;52.14;100903.19;5089416;28;20154;-68
2021/01/27 09:45:46;;;;;;;34.47;17.98;;;;;;;14.06;52.36;100907.31;5107089;28;20044;-70
2021/01/27 09:48:14;;;;;;;31.42;16.50;;;;;;;15.40;48.48;100902.59;5087040;28;20044;-69
2021/01/27 09:50:45;;;;;;;30.75;16.20;;;;;;;14.14;51.50;100922.38;5088793;28;20030;-68
2021/01/27 09:53:24;;;;;;;32.45;16.85;;;;;;;14.90;49.28;100912.47;5105216;28;20135;-68
2021/01/27 09:55:50;;;;;;;31.70;17.05;;;;;;;14.65;50.42;100912.47;5071233;28;20081;-69
2021/01/27 09:58:16;;;;;;;34.17;17.05;;;;;;;14.57;49.99;100912.75;5088849;28;20451;-69
2021/01/27 10:00:42;;;;;;;33.78;17.15;;;;;;;15.29;48.07;100928.44;5089097;28;20074;-67
2021/01/27 10:03:25;;;;;;;33.35;18.00;;;;;;;15.68;47.80;100925.47;5086865;28;20388;-66
2021/01/27 10:05:51;;;;;;;33.05;17.27;;;;;;;15.17;49.29;100920.28;5088391;28;20576;-67
2021/01/27 10:08:32;;;;;;;34.60;16.77;;;;;;;15.17;49.06;100927.53;5086748;28;20122;-66
2021/01/27 10:11:30;;;;;;;35.28;16.23;;;;;;;14.83;50.42;100927.06;5096729;28;20040;-63
2021/01/27 10:14:12;;;;;;;30.15;15.35;;;;;;;14.36;51.89;100920.16;5097482;28;20028;-62
2021/01/27 10:16:59;;;;;;;33.92;16.92;;;;;;;14.74;51.17;100921.94;5079952;28;20491;-70
2021/01/27 10:19:50;;;;;;;35.22;17.55;;;;;;;15.14;49.39;100911.81;5079107;28;20056;-68
2021/01/27 10:22:28;;;;;;;41.80;20.25;;;;;;;15.68;48.27;100901.22;5068613;28;20086;-69
2021/01/27 10:24:56;;;;;;;34.70;18.00;;;;;;;15.33;49.22;100926.09;5097483;28;20042;-71
2021/01/27 10:27:40;;;;;;;34.40;16.85;;;;;;;14.72;51.60;100920.53;5078647;28;20028;-70
2021/01/27 10:30:28;;;;;;;33.25;15.90;;;;;;;14.65;51.81;100939.38;5092620;28;20043;-69
2021/01/27 10:32:54;;;;;;;34.58;18.67;;;;;;;15.21;50.32;100917.94;5062986;28;20069;-70
2021/01/27 10:35:22;;;;;;;32.67;18.00;;;;;;;14.66;52.31;100922.19;5092712;28;20124;-69
2021/01/27 10:38:14;;;;;;;35.28;17.33;;;;;;;14.71;52.76;100925.06;5076021;28;20036;-70
2021/01/27 10:40:40;;;;;;;34.78;18.95;;;;;;;14.86;51.83;100921.22;5070697;28;20507;-69
2021/01/27 10:43:12;;;;;;;35.72;17.85;;;;;;;15.02;51.32;100919.81;5092762;28;20032;-68
2021/01/27 10:45:42;;;;;;;37.45;18.35;;;;;;;15.00;50.97;100916.53;5075473;28;20040;-69
2021/01/27 10:48:29;;;;;;;39.78;19.77;;;;;;;15.84;48.95;100920.50;5074988;28;20060;-68
2021/01/27 10:51:09;;;;;;;39.35;19.08;;;;;;;16.54;47.05;100920.91;5093621;28;20040;-69
2021/01/27 10:53:37;;;;;;;40.83;18.40;;;;;;;15.53;49.69;100922.34;5093441;28;20472;-70
2021/01/27 10:56:03;;;;;;;39.47;19.17;;;;;;;15.51;49.62;100910.97;5092607;28;20024;-67
2021/01/27 10:58:29;;;;;;;35.33;18.33;;;;;;;16.23;48.17;100925.56;5075521;28;20081;-69
2021/01/27 11:00:55;;;;;;;36.43;18.17;;;;;;;16.02;49.18;100919.66;5092602;28;20099;-69
2021/01/27 11:03:20;;;;;;;35.50;17.58;;;;;;;15.75;48.62;100936.19;5089301;28;20937;-68
2021/01/27 11:05:47;;;;;;;38.73;18.87;;;;;;;16.78;46.72;100916.38;5109720;28;20039;-69
2021/01/27 11:08:21;;;;;;;36.08;19.50;;;;;;;16.64;46.73;100931.97;5108691;28;20391;-69
2021/01/27 11:10:47;;;;;;;45.22;20.70;;;;;;;16.01;49.25;100923.41;5107414;28;20039;-70
2021/01/27 11:13:12;;;;;;;40.27;18.97;;;;;;;15.28;50.87;100923.25;5069006;28;20036;-69
2021/01/27 11:15:38;;;;;;;39.30;18.87;;;;;;;15.96;48.84;100928.66;5102563;28;20035;-70
2021/01/27 11:18:03;;;;;;;40.73;19.20;;;;;;;15.39;51.90;100921.69;5084348;28;20468;-68
2021/01/27 11:20:29;;;;;;;42.63;22.20;;;;;;;15.71;50.49;100925.00;5102410;28;20058;-70
2021/01/27 11:22:55;;;;;;;47.63;20.00;;;;;;;16.44;48.49;100924.19;5068569;28;20291;-70
2021/01/27 11:25:26;;;;;;;39.95;19.95;;;;;;;15.70;51.38;100912.59;5102661;28;20323;-69
2021/01/27 11:27:52;;;;;;;41.97;19.80;;;;;;;16.48;49.02;100911.88;5099656;28;20035;-70
2021/01/27 11:30:22;;;;;;;54.75;22.50;;;;;;;16.29;49.32;100921.94;5096852;28;20042;-69
2021/01/27 11:32:47;;;;;;;46.00;21.40;;;;;;;16.65;48.91;100911.19;5101086;28;20309;-69
2021/01/27 11:35:15;;;;;;;49.33;22.13;;;;;;;16.64;48.92;100913.09;5080069;28;20101;-70
2021/01/27 11:37:40;;;;;;;50.10;21.02;;;;;;;16.22;50.10;100910.44;5089622;28;20035;-70
2021/01/27 11:40:08;;;;;;;44.03;21.13;;;;;;;17.70;46.11;100905.88;5081102;28;20032;-66
2021/01/27 11:42:33;;;;;;;53.97;22.95;;;;;;;17.46;46.35;100894.31;5103498;28;20276;-70
2021/01/27 11:44:59;;;;;;;42.90;19.00;;;;;;;17.46;46.13;100891.59;5102386;28;20032;-70
2021/01/27 11:47:24;;;;;;;45.13;21.23;;;;;;;17.75;45.75;100915.94;5100260;28;20051;-70
2021/01/27 11:49:50;;;;;;;50.20;21.83;;;;;;;16.57;50.02;100913.19;5082362;28;20059;-70